sensor_id;sensor_type;location;lat;lon;timestamp;temperature;humidity
14079;DHT22;7115;50.150;8.568;2022-10-16T00:01:16;16.10;99.90
14079;DHT22;7115;50.150;8.568;2022-10-16T00:03:44;16.10;99.90
14079;DHT22;7115;50.150;8.568;2022-10-16T00:06:12;16.10;99.90
14079;DHT22;7115;50.150;8.568;2022-10-16T00:08:39;16.10;99.90
14079;DHT22;7115;50.150;8.568;2022-10-16T00:13:42;16.10;99.90
14079;DHT22;7115;50.150;8.568;2022-10-16T00:16:10;16.10;99.90
14079;DHT22;7115;50.150;8.568;2022-10-16T00:18:37;16.20;99.90
14079;DHT22;7115;50.150;8.568;2022-10-16T00:21:15;16.20;99.90
14079;DHT22;7115;50.150;8.568;2022-10-16T00:23:42;16.20;99.90
14079;DHT22;7115;50.150;8.568;2022-10-16T00:26:15;16.20;99.90
14079;DHT22;7115;50.150;8.568;2022-10-16T00:28:42;16.20;99.90
14079;DHT22;7115;50.150;8.568;2022-10-16T00:31:11;16.20;99.90
14079;DHT22;7115;50.150;8.568;2022-10-16T00:33:39;16.30;99.90
14079;DHT22;7115;50.150;8.568;2022-10-16T00:36:08;16.20;99.90
14079;DHT22;7115;50.150;8.568;2022-10-16T00:38:36;16.30;99.90
14079;DHT22;7115;50.150;8.568;2022-10-16T00:41:09;16.20;99.90
14079;DHT22;7115;50.150;8.568;2022-10-16T00:43:43;16.30;99.90
14079;DHT22;7115;50.150;8.568;2022-10-16T00:46:38;16.30;99.90
14079;DHT22;7115;50.150;8.568;2022-10-16T00:49:15;16.30;99.90
14079;DHT22;7115;50.150;8.568;2022-10-16T00:51:46;16.30;99.90
14079;DHT22;7115;50.150;8.568;2022-10-16T00:54:21;16.30;99.90
14079;DHT22;7115;50.150;8.568;2022-10-16T00:56:49;16.30;99.90
14079;DHT22;7115;50.150;8.568;2022-10-16T00:59:27;16.30;99.90
14079;DHT22;7115;50.150;8.568;2022-10-16T01:01:55;16.30;99.90
14079;DHT22;7115;50.150;8.568;2022-10-16T01:04:23;16.30;99.90
14079;DHT22;7115;50.150;8.568;2022-10-16T01:07:10;16.30;99.90
14079;DHT22;7115;50.150;8.568;2022-10-16T01:12:15;16.40;99.90
14079;DHT22;7115;50.150;8.568;2022-10-16T01:15:08;16.40;99.90
14079;DHT22;7115;50.150;8.568;2022-10-16T01:17:45;16.40;99.90
14079;DHT22;7115;50.150;8.568;2022-10-16T01:28:11;16.40;99.90
14079;DHT22;7115;50.150;8.568;2022-10-16T01:30:41;16.40;99.90
14079;DHT22;7115;50.150;8.568;2022-10-16T01:33:20;16.40;99.90
14079;DHT22;7115;50.150;8.568;2022-10-16T01:36:03;16.40;99.90
14079;DHT22;7115;50.150;8.568;2022-10-16T01:38:35;16.40;99.90
14079;DHT22;7115;50.150;8.568;2022-10-16T01:41:17;16.50;99.90
14079;DHT22;7115;50.150;8.568;2022-10-16T01:43:49;16.50;99.90
14079;DHT22;7115;50.150;8.568;2022-10-16T01:46:18;16.50;99.90
14079;DHT22;7115;50.150;8.568;2022-10-16T01:48:48;16.50;99.90
14079;DHT22;7115;50.150;8.568;2022-10-16T01:51:16;16.40;99.90
14079;DHT22;7115;50.150;8.568;2022-10-16T01:53:48;16.40;99.90
14079;DHT22;7115;50.150;8.568;2022-10-16T01:56:17;16.40;99.90
14079;DHT22;7115;50.150;8.568;2022-10-16T01:59:12;16.40;99.90
14079;DHT22;7115;50.150;8.568;2022-10-16T02:01:40;16.40;99.90
14079;DHT22;7115;50.150;8.568;2022-10-16T02:04:13;16.30;99.90
14079;DHT22;7115;50.150;8.568;2022-10-16T02:06:41;16.30;99.90
14079;DHT22;7115;50.150;8.568;2022-10-16T02:09:08;16.30;99.90
14079;DHT22;7115;50.150;8.568;2022-10-16T02:11:35;16.30;99.90
14079;DHT22;7115;50.150;8.568;2022-10-16T02:14:04;16.30;99.90
14079;DHT22;7115;50.150;8.568;2022-10-16T02:16:40;16.30;99.90
14079;DHT22;7115;50.150;8.568;2022-10-16T02:19:08;16.40;99.90
14079;DHT22;7115;50.150;8.568;2022-10-16T02:21:56;16.40;99.90
14079;DHT22;7115;50.150;8.568;2022-10-16T02:29:40;16.30;99.90
14079;DHT22;7115;50.150;8.568;2022-10-16T02:32:12;16.30;99.90
14079;DHT22;7115;50.150;8.568;2022-10-16T02:34:42;16.30;99.90
14079;DHT22;7115;50.150;8.568;2022-10-16T02:37:09;16.30;99.90
14079;DHT22;7115;50.150;8.568;2022-10-16T02:39:38;16.30;99.90
14079;DHT22;7115;50.150;8.568;2022-10-16T02:42:10;16.30;99.90
14079;DHT22;7115;50.150;8.568;2022-10-16T02:44:38;16.30;99.90
14079;DHT22;7115;50.150;8.568;2022-10-16T02:47:04;16.30;99.90
14079;DHT22;7115;50.150;8.568;2022-10-16T02:49:31;16.30;99.90
14079;DHT22;7115;50.150;8.568;2022-10-16T02:51:58;16.30;99.90
14079;DHT22;7115;50.150;8.568;2022-10-16T02:54:25;16.40;99.90
14079;DHT22;7115;50.150;8.568;2022-10-16T02:56:51;16.40;99.90
14079;DHT22;7115;50.150;8.568;2022-10-16T02:59:18;16.40;99.90
14079;DHT22;7115;50.150;8.568;2022-10-16T03:01:45;16.40;99.90
14079;DHT22;7115;50.150;8.568;2022-10-16T03:04:11;16.40;99.90
14079;DHT22;7115;50.150;8.568;2022-10-16T03:06:38;16.30;99.90
14079;DHT22;7115;50.150;8.568;2022-10-16T03:09:05;16.30;99.90
14079;DHT22;7115;50.150;8.568;2022-10-16T03:11:31;16.30;99.90
14079;DHT22;7115;50.150;8.568;2022-10-16T03:13:58;16.30;99.90
14079;DHT22;7115;50.150;8.568;2022-10-16T03:16:25;16.30;99.90
14079;DHT22;7115;50.150;8.568;2022-10-16T03:18:51;16.30;99.90
14079;DHT22;7115;50.150;8.568;2022-10-16T03:21:18;16.30;99.90
14079;DHT22;7115;50.150;8.568;2022-10-16T03:23:45;16.30;99.90
14079;DHT22;7115;50.150;8.568;2022-10-16T03:26:11;16.30;99.90
14079;DHT22;7115;50.150;8.568;2022-10-16T03:28:38;16.30;99.90
14079;DHT22;7115;50.150;8.568;2022-10-16T03:31:05;16.30;99.90
14079;DHT22;7115;50.150;8.568;2022-10-16T03:33:31;16.30;99.90
14079;DHT22;7115;50.150;8.568;2022-10-16T03:35:58;16.30;99.90
14079;DHT22;7115;50.150;8.568;2022-10-16T03:38:25;16.30;99.90
14079;DHT22;7115;50.150;8.568;2022-10-16T03:40:52;16.30;99.90
14079;DHT22;7115;50.150;8.568;2022-10-16T03:43:19;16.30;99.90
14079;DHT22;7115;50.150;8.568;2022-10-16T03:45:45;16.30;99.90
14079;DHT22;7115;50.150;8.568;2022-10-16T03:48:12;16.30;99.90
14079;DHT22;7115;50.150;8.568;2022-10-16T03:50:39;16.30;99.90
14079;DHT22;7115;50.150;8.568;2022-10-16T03:53:06;16.30;99.90
14079;DHT22;7115;50.150;8.568;2022-10-16T03:55:32;16.30;99.90
14079;DHT22;7115;50.150;8.568;2022-10-16T03:57:59;16.30;99.90
14079;DHT22;7115;50.150;8.568;2022-10-16T04:00:26;16.30;99.90
14079;DHT22;7115;50.150;8.568;2022-10-16T04:02:53;16.30;99.90
14079;DHT22;7115;50.150;8.568;2022-10-16T04:05:19;16.30;99.90
14079;DHT22;7115;50.150;8.568;2022-10-16T04:07:46;16.30;99.90
14079;DHT22;7115;50.150;8.568;2022-10-16T04:10:13;16.30;99.90
14079;DHT22;7115;50.150;8.568;2022-10-16T04:12:39;16.20;99.90
14079;DHT22;7115;50.150;8.568;2022-10-16T04:15:06;16.30;99.90
14079;DHT22;7115;50.150;8.568;2022-10-16T04:17:33;16.30;99.90
14079;DHT22;7115;50.150;8.568;2022-10-16T04:20:00;16.30;99.90
14079;DHT22;7115;50.150;8.568;2022-10-16T04:22:27;16.30;99.90
14079;DHT22;7115;50.150;8.568;2022-10-16T04:24:53;16.30;99.90
14079;DHT22;7115;50.150;8.568;2022-10-16T04:27:22;16.30;99.90
14079;DHT22;7115;50.150;8.568;2022-10-16T04:29:49;16.30;99.90
14079;DHT22;7115;50.150;8.568;2022-10-16T04:32:16;16.30;99.90
14079;DHT22;7115;50.150;8.568;2022-10-16T04:34:43;16.30;99.90
14079;DHT22;7115;50.150;8.568;2022-10-16T04:37:09;16.30;99.90
14079;DHT22;7115;50.150;8.568;2022-10-16T04:39:36;16.40;99.90
14079;DHT22;7115;50.150;8.568;2022-10-16T04:42:03;16.30;99.90
14079;DHT22;7115;50.150;8.568;2022-10-16T04:44:29;16.30;99.90
14079;DHT22;7115;50.150;8.568;2022-10-16T04:46:56;16.40;99.90
14079;DHT22;7115;50.150;8.568;2022-10-16T04:49:23;16.40;99.90
14079;DHT22;7115;50.150;8.568;2022-10-16T04:51:49;16.40;99.90
14079;DHT22;7115;50.150;8.568;2022-10-16T04:54:16;16.40;99.90
14079;DHT22;7115;50.150;8.568;2022-10-16T04:56:43;16.40;99.90
14079;DHT22;7115;50.150;8.568;2022-10-16T04:59:17;16.40;99.90
14079;DHT22;7115;50.150;8.568;2022-10-16T05:01:44;16.40;99.90
14079;DHT22;7115;50.150;8.568;2022-10-16T05:04:11;16.40;99.90
14079;DHT22;7115;50.150;8.568;2022-10-16T05:06:38;16.40;99.90
14079;DHT22;7115;50.150;8.568;2022-10-16T05:09:05;16.40;99.90
14079;DHT22;7115;50.150;8.568;2022-10-16T05:11:32;16.40;99.90
14079;DHT22;7115;50.150;8.568;2022-10-16T05:13:59;16.40;99.90
14079;DHT22;7115;50.150;8.568;2022-10-16T05:16:26;16.40;99.90
14079;DHT22;7115;50.150;8.568;2022-10-16T05:18:53;16.40;99.90
14079;DHT22;7115;50.150;8.568;2022-10-16T05:21:29;16.40;99.90
14079;DHT22;7115;50.150;8.568;2022-10-16T05:23:56;16.30;99.90
14079;DHT22;7115;50.150;8.568;2022-10-16T05:26:23;16.30;99.90
14079;DHT22;7115;50.150;8.568;2022-10-16T05:28:50;16.30;99.90
14079;DHT22;7115;50.150;8.568;2022-10-16T05:31:17;16.30;99.90
14079;DHT22;7115;50.150;8.568;2022-10-16T05:33:43;16.30;99.90
14079;DHT22;7115;50.150;8.568;2022-10-16T05:36:11;16.30;99.90
14079;DHT22;7115;50.150;8.568;2022-10-16T05:38:38;16.30;99.90
14079;DHT22;7115;50.150;8.568;2022-10-16T05:41:06;16.30;99.90
14079;DHT22;7115;50.150;8.568;2022-10-16T05:43:32;16.30;99.90
14079;DHT22;7115;50.150;8.568;2022-10-16T05:46:02;16.40;99.90
14079;DHT22;7115;50.150;8.568;2022-10-16T05:48:29;16.40;99.90
14079;DHT22;7115;50.150;8.568;2022-10-16T05:51:01;16.40;99.90
14079;DHT22;7115;50.150;8.568;2022-10-16T05:53:30;16.40;99.90
14079;DHT22;7115;50.150;8.568;2022-10-16T05:55:57;16.40;99.90
14079;DHT22;7115;50.150;8.568;2022-10-16T05:58:27;16.40;99.90
14079;DHT22;7115;50.150;8.568;2022-10-16T06:01:02;16.40;99.90
14079;DHT22;7115;50.150;8.568;2022-10-16T06:03:29;16.40;99.90
14079;DHT22;7115;50.150;8.568;2022-10-16T06:05:56;16.40;99.90
14079;DHT22;7115;50.150;8.568;2022-10-16T06:08:23;16.40;99.90
14079;DHT22;7115;50.150;8.568;2022-10-16T06:11:00;16.40;99.90
14079;DHT22;7115;50.150;8.568;2022-10-16T06:13:27;16.40;99.90
14079;DHT22;7115;50.150;8.568;2022-10-16T06:15:57;16.30;99.90
14079;DHT22;7115;50.150;8.568;2022-10-16T06:18:24;16.30;99.90
14079;DHT22;7115;50.150;8.568;2022-10-16T06:20:51;16.30;99.90
14079;DHT22;7115;50.150;8.568;2022-10-16T06:23:18;16.30;99.90
14079;DHT22;7115;50.150;8.568;2022-10-16T06:25:45;16.30;99.90
14079;DHT22;7115;50.150;8.568;2022-10-16T06:28:13;16.30;99.90
14079;DHT22;7115;50.150;8.568;2022-10-16T06:30:40;16.20;99.90
14079;DHT22;7115;50.150;8.568;2022-10-16T06:33:07;16.30;99.90
14079;DHT22;7115;50.150;8.568;2022-10-16T06:35:33;16.30;99.90
14079;DHT22;7115;50.150;8.568;2022-10-16T06:38:00;16.30;99.90
14079;DHT22;7115;50.150;8.568;2022-10-16T06:40:27;16.20;99.90
14079;DHT22;7115;50.150;8.568;2022-10-16T06:42:57;16.30;99.90
14079;DHT22;7115;50.150;8.568;2022-10-16T06:45:23;16.40;99.90
14079;DHT22;7115;50.150;8.568;2022-10-16T06:47:50;16.30;99.90
14079;DHT22;7115;50.150;8.568;2022-10-16T06:50:17;16.40;99.90
14079;DHT22;7115;50.150;8.568;2022-10-16T06:52:43;16.40;99.90
14079;DHT22;7115;50.150;8.568;2022-10-16T06:55:10;16.40;99.90
14079;DHT22;7115;50.150;8.568;2022-10-16T06:57:37;16.40;99.90
14079;DHT22;7115;50.150;8.568;2022-10-16T07:00:04;16.50;99.90
14079;DHT22;7115;50.150;8.568;2022-10-16T07:02:31;16.50;99.90
14079;DHT22;7115;50.150;8.568;2022-10-16T07:04:58;16.50;99.90
14079;DHT22;7115;50.150;8.568;2022-10-16T07:07:24;16.50;99.90
14079;DHT22;7115;50.150;8.568;2022-10-16T07:09:53;16.50;99.90
14079;DHT22;7115;50.150;8.568;2022-10-16T07:12:19;16.50;99.90
14079;DHT22;7115;50.150;8.568;2022-10-16T07:14:46;16.50;99.90
14079;DHT22;7115;50.150;8.568;2022-10-16T07:17:13;16.50;99.90
14079;DHT22;7115;50.150;8.568;2022-10-16T07:19:39;16.50;99.90
14079;DHT22;7115;50.150;8.568;2022-10-16T07:22:06;16.50;99.90
14079;DHT22;7115;50.150;8.568;2022-10-16T07:24:33;16.50;99.90
14079;DHT22;7115;50.150;8.568;2022-10-16T07:26:59;16.50;99.90
14079;DHT22;7115;50.150;8.568;2022-10-16T07:29:26;16.50;99.90
14079;DHT22;7115;50.150;8.568;2022-10-16T07:31:53;16.60;99.90
14079;DHT22;7115;50.150;8.568;2022-10-16T07:34:19;16.60;99.90
14079;DHT22;7115;50.150;8.568;2022-10-16T07:36:49;16.60;99.90
14079;DHT22;7115;50.150;8.568;2022-10-16T07:39:16;16.70;99.90
14079;DHT22;7115;50.150;8.568;2022-10-16T07:41:43;16.70;99.90
14079;DHT22;7115;50.150;8.568;2022-10-16T07:44:10;16.80;99.90
14079;DHT22;7115;50.150;8.568;2022-10-16T07:46:37;16.80;99.90
14079;DHT22;7115;50.150;8.568;2022-10-16T07:49:04;16.90;99.90
14079;DHT22;7115;50.150;8.568;2022-10-16T07:51:31;16.90;99.90
14079;DHT22;7115;50.150;8.568;2022-10-16T07:53:58;16.90;99.90
14079;DHT22;7115;50.150;8.568;2022-10-16T07:56:25;16.90;99.90
14079;DHT22;7115;50.150;8.568;2022-10-16T07:58:51;16.90;99.90
14079;DHT22;7115;50.150;8.568;2022-10-16T08:01:18;16.90;99.90
14079;DHT22;7115;50.150;8.568;2022-10-16T08:03:48;17.00;99.90
14079;DHT22;7115;50.150;8.568;2022-10-16T08:06:15;17.00;99.90
14079;DHT22;7115;50.150;8.568;2022-10-16T08:08:46;17.00;99.90
14079;DHT22;7115;50.150;8.568;2022-10-16T08:11:14;17.10;99.90
14079;DHT22;7115;50.150;8.568;2022-10-16T08:13:42;17.10;99.90
14079;DHT22;7115;50.150;8.568;2022-10-16T08:16:09;17.10;99.90
14079;DHT22;7115;50.150;8.568;2022-10-16T08:18:37;17.10;99.90
14079;DHT22;7115;50.150;8.568;2022-10-16T08:21:05;17.10;99.90
14079;DHT22;7115;50.150;8.568;2022-10-16T08:23:33;17.00;99.90
14079;DHT22;7115;50.150;8.568;2022-10-16T08:26:06;17.00;99.90
14079;DHT22;7115;50.150;8.568;2022-10-16T08:28:34;16.90;99.90
14079;DHT22;7115;50.150;8.568;2022-10-16T08:33:33;16.90;99.90
14079;DHT22;7115;50.150;8.568;2022-10-16T08:36:02;16.90;99.90
14079;DHT22;7115;50.150;8.568;2022-10-16T08:38:29;16.90;99.90
14079;DHT22;7115;50.150;8.568;2022-10-16T08:41:27;16.90;99.90
14079;DHT22;7115;50.150;8.568;2022-10-16T08:49:29;16.90;99.90
14079;DHT22;7115;50.150;8.568;2022-10-16T08:51:56;16.90;99.90
14079;DHT22;7115;50.150;8.568;2022-10-16T08:54:36;16.90;99.90
14079;DHT22;7115;50.150;8.568;2022-10-16T08:57:13;17.00;99.90
14079;DHT22;7115;50.150;8.568;2022-10-16T08:59:48;17.00;99.90
14079;DHT22;7115;50.150;8.568;2022-10-16T09:02:27;17.00;99.90
14079;DHT22;7115;50.150;8.568;2022-10-16T09:05:17;17.10;99.90
14079;DHT22;7115;50.150;8.568;2022-10-16T09:15:59;17.40;99.90
14079;DHT22;7115;50.150;8.568;2022-10-16T09:21:30;17.40;99.90
14079;DHT22;7115;50.150;8.568;2022-10-16T09:24:00;17.40;99.90
14079;DHT22;7115;50.150;8.568;2022-10-16T09:26:30;17.40;99.90
14079;DHT22;7115;50.150;8.568;2022-10-16T09:28:57;17.40;99.90
14079;DHT22;7115;50.150;8.568;2022-10-16T09:31:24;17.40;99.90
14079;DHT22;7115;50.150;8.568;2022-10-16T09:33:58;17.40;99.90
14079;DHT22;7115;50.150;8.568;2022-10-16T09:36:27;17.30;99.90
14079;DHT22;7115;50.150;8.568;2022-10-16T09:39:06;17.30;99.90
14079;DHT22;7115;50.150;8.568;2022-10-16T09:41:36;17.30;99.90
14079;DHT22;7115;50.150;8.568;2022-10-16T09:44:06;17.30;99.90
14079;DHT22;7115;50.150;8.568;2022-10-16T09:46:42;17.20;99.90
14079;DHT22;7115;50.150;8.568;2022-10-16T09:49:25;17.20;99.90
14079;DHT22;7115;50.150;8.568;2022-10-16T09:52:05;17.20;99.90
14079;DHT22;7115;50.150;8.568;2022-10-16T09:54:32;17.20;99.90
14079;DHT22;7115;50.150;8.568;2022-10-16T09:57:07;17.20;99.90
14079;DHT22;7115;50.150;8.568;2022-10-16T09:59:34;17.20;99.90
14079;DHT22;7115;50.150;8.568;2022-10-16T10:02:03;17.20;99.90
14079;DHT22;7115;50.150;8.568;2022-10-16T10:04:41;17.20;99.90
14079;DHT22;7115;50.150;8.568;2022-10-16T10:09:55;17.20;99.90
14079;DHT22;7115;50.150;8.568;2022-10-16T10:12:27;17.20;99.90
14079;DHT22;7115;50.150;8.568;2022-10-16T10:14:56;17.30;99.90
14079;DHT22;7115;50.150;8.568;2022-10-16T10:17:28;17.50;99.90
14079;DHT22;7115;50.150;8.568;2022-10-16T10:19:57;17.80;99.90
14079;DHT22;7115;50.150;8.568;2022-10-16T10:22:41;18.30;99.90
14079;DHT22;7115;50.150;8.568;2022-10-16T10:38:40;21.40;99.90
14079;DHT22;7115;50.150;8.568;2022-10-16T10:47:19;21.30;99.90
14079;DHT22;7115;50.150;8.568;2022-10-16T10:55:18;21.90;99.90
14079;DHT22;7115;50.150;8.568;2022-10-16T11:06:30;21.50;99.90
14079;DHT22;7115;50.150;8.568;2022-10-16T11:11:43;21.10;99.90
14079;DHT22;7115;50.150;8.568;2022-10-16T11:16:58;20.60;99.90
14079;DHT22;7115;50.150;8.568;2022-10-16T11:23:38;20.30;99.90
14079;DHT22;7115;50.150;8.568;2022-10-16T11:25:45;20.20;99.90
14079;DHT22;7115;50.150;8.568;2022-10-16T11:28:45;20.00;99.90
14079;DHT22;7115;50.150;8.568;2022-10-16T11:31:37;19.80;99.90
14079;DHT22;7115;50.150;8.568;2022-10-16T11:37:24;19.60;99.90
14079;DHT22;7115;50.150;8.568;2022-10-16T11:39:54;19.40;99.90
14079;DHT22;7115;50.150;8.568;2022-10-16T11:42:34;19.40;99.90
14079;DHT22;7115;50.150;8.568;2022-10-16T11:47:44;19.30;99.90
14079;DHT22;7115;50.150;8.568;2022-10-16T11:55:55;19.40;99.90
14079;DHT22;7115;50.150;8.568;2022-10-16T11:58:32;19.40;99.90
14079;DHT22;7115;50.150;8.568;2022-10-16T12:03:40;19.50;99.90
14079;DHT22;7115;50.150;8.568;2022-10-16T12:08:59;19.70;99.90
14079;DHT22;7115;50.150;8.568;2022-10-16T12:16:31;19.80;99.90
14079;DHT22;7115;50.150;8.568;2022-10-16T12:19:13;19.80;99.90
14079;DHT22;7115;50.150;8.568;2022-10-16T12:21:41;19.80;99.90
14079;DHT22;7115;50.150;8.568;2022-10-16T12:24:31;19.70;99.90
14079;DHT22;7115;50.150;8.568;2022-10-16T12:26:59;19.70;99.90
14079;DHT22;7115;50.150;8.568;2022-10-16T12:29:41;19.80;99.90
14079;DHT22;7115;50.150;8.568;2022-10-16T12:32:33;19.90;99.90
14079;DHT22;7115;50.150;8.568;2022-10-16T12:35:21;20.00;99.90
14079;DHT22;7115;50.150;8.568;2022-10-16T12:37:49;20.30;99.90
14079;DHT22;7115;50.150;8.568;2022-10-16T12:40:29;20.50;99.90
14079;DHT22;7115;50.150;8.568;2022-10-16T12:42:57;20.80;99.90
14079;DHT22;7115;50.150;8.568;2022-10-16T12:45:31;21.00;99.90
14079;DHT22;7115;50.150;8.568;2022-10-16T12:48:00;21.10;99.90
14079;DHT22;7115;50.150;8.568;2022-10-16T12:50:38;21.30;99.90
14079;DHT22;7115;50.150;8.568;2022-10-16T12:53:21;21.40;99.90
14079;DHT22;7115;50.150;8.568;2022-10-16T12:56:16;21.50;99.90
14079;DHT22;7115;50.150;8.568;2022-10-16T13:10:19;21.80;99.90
14079;DHT22;7115;50.150;8.568;2022-10-16T13:15:35;21.70;99.90
14079;DHT22;7115;50.150;8.568;2022-10-16T13:27:43;21.30;99.90
14079;DHT22;7115;50.150;8.568;2022-10-16T13:30:19;21.20;99.90
14079;DHT22;7115;50.150;8.568;2022-10-16T13:32:50;21.20;99.90
14079;DHT22;7115;50.150;8.568;2022-10-16T13:35:27;21.10;99.90
14079;DHT22;7115;50.150;8.568;2022-10-16T13:46:01;21.20;99.90
14079;DHT22;7115;50.150;8.568;2022-10-16T13:48:30;21.30;99.90
14079;DHT22;7115;50.150;8.568;2022-10-16T13:51:12;21.30;99.90
14079;DHT22;7115;50.150;8.568;2022-10-16T13:53:40;21.20;99.90
14079;DHT22;7115;50.150;8.568;2022-10-16T13:56:13;21.10;99.90
14079;DHT22;7115;50.150;8.568;2022-10-16T13:58:40;21.00;99.90
14079;DHT22;7115;50.150;8.568;2022-10-16T14:01:19;20.90;99.90
14079;DHT22;7115;50.150;8.568;2022-10-16T14:03:47;20.90;99.90
14079;DHT22;7115;50.150;8.568;2022-10-16T14:06:20;20.80;99.90
14079;DHT22;7115;50.150;8.568;2022-10-16T14:09:03;20.70;99.90
14079;DHT22;7115;50.150;8.568;2022-10-16T14:11:32;20.70;99.90
14079;DHT22;7115;50.150;8.568;2022-10-16T14:13:59;20.70;99.90
14079;DHT22;7115;50.150;8.568;2022-10-16T14:16:29;20.60;99.90
14079;DHT22;7115;50.150;8.568;2022-10-16T14:19:02;20.60;99.90
14079;DHT22;7115;50.150;8.568;2022-10-16T14:21:30;20.60;99.90
14079;DHT22;7115;50.150;8.568;2022-10-16T14:23:58;20.70;99.90
14079;DHT22;7115;50.150;8.568;2022-10-16T14:26:28;20.70;99.90
14079;DHT22;7115;50.150;8.568;2022-10-16T14:29:13;20.70;99.90
14079;DHT22;7115;50.150;8.568;2022-10-16T14:31:41;20.70;99.90
14079;DHT22;7115;50.150;8.568;2022-10-16T14:34:52;20.70;99.90
14079;DHT22;7115;50.150;8.568;2022-10-16T14:37:25;20.70;99.90
14079;DHT22;7115;50.150;8.568;2022-10-16T14:39:54;20.70;99.90
14079;DHT22;7115;50.150;8.568;2022-10-16T14:42:23;20.80;99.90
14079;DHT22;7115;50.150;8.568;2022-10-16T14:44:52;20.80;99.90
14079;DHT22;7115;50.150;8.568;2022-10-16T14:47:22;20.80;99.90
14079;DHT22;7115;50.150;8.568;2022-10-16T14:49:53;20.90;99.90
14079;DHT22;7115;50.150;8.568;2022-10-16T14:52:25;20.90;99.90
14079;DHT22;7115;50.150;8.568;2022-10-16T14:54:52;20.90;99.90
14079;DHT22;7115;50.150;8.568;2022-10-16T14:57:25;21.00;99.90
14079;DHT22;7115;50.150;8.568;2022-10-16T14:59:54;20.90;99.90
14079;DHT22;7115;50.150;8.568;2022-10-16T15:02:28;20.90;99.90
14079;DHT22;7115;50.150;8.568;2022-10-16T15:04:56;21.00;99.90
14079;DHT22;7115;50.150;8.568;2022-10-16T15:07:23;20.90;99.90
14079;DHT22;7115;50.150;8.568;2022-10-16T15:09:50;20.90;99.90
14079;DHT22;7115;50.150;8.568;2022-10-16T15:12:18;20.90;99.90
14079;DHT22;7115;50.150;8.568;2022-10-16T15:14:44;20.90;99.90
14079;DHT22;7115;50.150;8.568;2022-10-16T15:17:11;20.80;99.90
14079;DHT22;7115;50.150;8.568;2022-10-16T15:19:40;20.90;99.90
14079;DHT22;7115;50.150;8.568;2022-10-16T15:22:08;20.90;99.90
14079;DHT22;7115;50.150;8.568;2022-10-16T15:24:35;20.90;99.90
14079;DHT22;7115;50.150;8.568;2022-10-16T15:27:02;20.80;99.90
14079;DHT22;7115;50.150;8.568;2022-10-16T15:29:28;20.80;99.90
14079;DHT22;7115;50.150;8.568;2022-10-16T15:31:55;20.80;99.90
14079;DHT22;7115;50.150;8.568;2022-10-16T15:34:22;20.80;99.90
14079;DHT22;7115;50.150;8.568;2022-10-16T15:36:48;20.80;99.90
14079;DHT22;7115;50.150;8.568;2022-10-16T15:39:17;20.80;99.90
14079;DHT22;7115;50.150;8.568;2022-10-16T15:41:46;20.80;99.90
14079;DHT22;7115;50.150;8.568;2022-10-16T15:44:18;20.70;99.90
14079;DHT22;7115;50.150;8.568;2022-10-16T15:46:45;20.70;99.90
14079;DHT22;7115;50.150;8.568;2022-10-16T15:49:12;20.70;99.90
14079;DHT22;7115;50.150;8.568;2022-10-16T15:51:40;20.70;99.90
14079;DHT22;7115;50.150;8.568;2022-10-16T15:54:07;20.70;99.90
14079;DHT22;7115;50.150;8.568;2022-10-16T15:56:35;20.60;99.90
14079;DHT22;7115;50.150;8.568;2022-10-16T15:59:03;20.60;99.90
14079;DHT22;7115;50.150;8.568;2022-10-16T16:01:34;20.50;99.90
14079;DHT22;7115;50.150;8.568;2022-10-16T16:04:02;20.50;99.90
14079;DHT22;7115;50.150;8.568;2022-10-16T16:06:41;20.50;99.90
14079;DHT22;7115;50.150;8.568;2022-10-16T16:09:12;20.50;99.90
14079;DHT22;7115;50.150;8.568;2022-10-16T16:11:40;20.40;99.90
14079;DHT22;7115;50.150;8.568;2022-10-16T16:14:08;20.40;99.90
14079;DHT22;7115;50.150;8.568;2022-10-16T16:16:37;20.40;99.90
14079;DHT22;7115;50.150;8.568;2022-10-16T16:19:05;20.40;99.90
14079;DHT22;7115;50.150;8.568;2022-10-16T16:21:37;20.30;99.90
14079;DHT22;7115;50.150;8.568;2022-10-16T16:24:03;20.30;99.90
14079;DHT22;7115;50.150;8.568;2022-10-16T16:26:35;20.30;99.90
14079;DHT22;7115;50.150;8.568;2022-10-16T16:29:05;20.20;99.90
14079;DHT22;7115;50.150;8.568;2022-10-16T16:31:33;20.20;99.90
14079;DHT22;7115;50.150;8.568;2022-10-16T16:34:01;20.20;99.90
14079;DHT22;7115;50.150;8.568;2022-10-16T16:36:28;20.20;99.90
14079;DHT22;7115;50.150;8.568;2022-10-16T16:38:55;20.10;99.90
14079;DHT22;7115;50.150;8.568;2022-10-16T16:41:27;20.10;99.90
14079;DHT22;7115;50.150;8.568;2022-10-16T16:43:55;20.00;99.90
14079;DHT22;7115;50.150;8.568;2022-10-16T16:46:22;20.00;99.90
14079;DHT22;7115;50.150;8.568;2022-10-16T16:48:49;20.00;99.90
14079;DHT22;7115;50.150;8.568;2022-10-16T16:51:21;20.00;99.90
14079;DHT22;7115;50.150;8.568;2022-10-16T16:53:50;19.90;99.90
14079;DHT22;7115;50.150;8.568;2022-10-16T16:56:18;19.90;99.90
14079;DHT22;7115;50.150;8.568;2022-10-16T16:58:49;19.90;99.90
14079;DHT22;7115;50.150;8.568;2022-10-16T17:01:16;19.90;99.90
14079;DHT22;7115;50.150;8.568;2022-10-16T17:03:48;19.80;99.90
14079;DHT22;7115;50.150;8.568;2022-10-16T17:06:23;19.80;99.90
14079;DHT22;7115;50.150;8.568;2022-10-16T17:08:50;19.80;99.90
14079;DHT22;7115;50.150;8.568;2022-10-16T17:11:23;19.80;99.90
14079;DHT22;7115;50.150;8.568;2022-10-16T17:13:50;19.80;99.90
14079;DHT22;7115;50.150;8.568;2022-10-16T17:16:34;19.70;99.90
14079;DHT22;7115;50.150;8.568;2022-10-16T17:19:03;19.70;99.90
14079;DHT22;7115;50.150;8.568;2022-10-16T17:21:30;19.70;99.90
14079;DHT22;7115;50.150;8.568;2022-10-16T17:23:59;19.70;99.90
14079;DHT22;7115;50.150;8.568;2022-10-16T17:26:26;19.70;99.90
14079;DHT22;7115;50.150;8.568;2022-10-16T17:28:55;19.70;99.90
14079;DHT22;7115;50.150;8.568;2022-10-16T17:31:27;19.60;99.90
14079;DHT22;7115;50.150;8.568;2022-10-16T17:33:54;19.60;99.90
14079;DHT22;7115;50.150;8.568;2022-10-16T17:36:22;19.50;99.90
14079;DHT22;7115;50.150;8.568;2022-10-16T17:38:49;19.60;99.90
14079;DHT22;7115;50.150;8.568;2022-10-16T17:41:17;19.50;99.90
14079;DHT22;7115;50.150;8.568;2022-10-16T17:43:45;19.50;99.90
14079;DHT22;7115;50.150;8.568;2022-10-16T17:46:13;19.40;99.90
14079;DHT22;7115;50.150;8.568;2022-10-16T17:48:42;19.40;99.90
14079;DHT22;7115;50.150;8.568;2022-10-16T17:51:11;19.40;99.90
14079;DHT22;7115;50.150;8.568;2022-10-16T17:53:38;19.30;99.90
14079;DHT22;7115;50.150;8.568;2022-10-16T17:56:10;19.30;99.90
14079;DHT22;7115;50.150;8.568;2022-10-16T17:58:37;19.20;99.90
14079;DHT22;7115;50.150;8.568;2022-10-16T18:01:19;19.20;99.90
14079;DHT22;7115;50.150;8.568;2022-10-16T18:04:00;19.10;99.90
14079;DHT22;7115;50.150;8.568;2022-10-16T18:06:28;19.10;99.90
14079;DHT22;7115;50.150;8.568;2022-10-16T18:08:57;19.00;99.90
14079;DHT22;7115;50.150;8.568;2022-10-16T18:11:24;19.00;99.90
14079;DHT22;7115;50.150;8.568;2022-10-16T18:13:53;18.90;99.90
14079;DHT22;7115;50.150;8.568;2022-10-16T18:16:20;18.90;99.90
14079;DHT22;7115;50.150;8.568;2022-10-16T18:18:48;18.90;99.90
14079;DHT22;7115;50.150;8.568;2022-10-16T18:21:16;18.80;99.90